sensor_id;sensor_type;location;lat;lon;timestamp;P1;durP1;ratioP1;P2;durP2;ratioP2
24277;SDS011;12394;42.692;23.314;2023-09-18T00:00:53;17.30;;;11.97;;
24277;SDS011;12394;42.692;23.314;2023-09-18T00:03:19;14.13;;;11.27;;
24277;SDS011;12394;42.692;23.314;2023-09-18T00:05:48;17.17;;;11.33;;
24277;SDS011;12394;42.692;23.314;2023-09-18T00:08:14;14.03;;;10.93;;
24277;SDS011;12394;42.692;23.314;2023-09-18T00:10:40;20.60;;;13.13;;
24277;SDS011;12394;42.692;23.314;2023-09-18T00:13:06;19.63;;;12.97;;
24277;SDS011;12394;42.692;23.314;2023-09-18T00:15:31;17.30;;;12.63;;
24277;SDS011;12394;42.692;23.314;2023-09-18T00:17:57;21.73;;;12.97;;
24277;SDS011;12394;42.692;23.314;2023-09-18T00:20:22;17.87;;;13.30;;
24277;SDS011;12394;42.692;23.314;2023-09-18T00:22:53;16.97;;;13.63;;
24277;SDS011;12394;42.692;23.314;2023-09-18T00:25:19;18.23;;;12.77;;
24277;SDS011;12394;42.692;23.314;2023-09-18T00:27:44;17.70;;;13.50;;
24277;SDS011;12394;42.692;23.314;2023-09-18T00:30:10;18.30;;;13.63;;
24277;SDS011;12394;42.692;23.314;2023-09-18T00:32:36;16.90;;;13.03;;
24277;SDS011;12394;42.692;23.314;2023-09-18T00:35:02;18.80;;;13.33;;
24277;SDS011;12394;42.692;23.314;2023-09-18T00:37:28;19.70;;;14.03;;
24277;SDS011;12394;42.692;23.314;2023-09-18T00:39:54;19.33;;;13.90;;
24277;SDS011;12394;42.692;23.314;2023-09-18T00:42:19;19.50;;;13.90;;
24277;SDS011;12394;42.692;23.314;2023-09-18T00:44:47;20.50;;;12.90;;
24277;SDS011;12394;42.692;23.314;2023-09-18T00:47:13;16.77;;;12.87;;
24277;SDS011;12394;42.692;23.314;2023-09-18T00:49:41;19.83;;;15.50;;
24277;SDS011;12394;42.692;23.314;2023-09-18T00:52:09;18.37;;;14.37;;
24277;SDS011;12394;42.692;23.314;2023-09-18T00:54:35;22.37;;;15.50;;
24277;SDS011;12394;42.692;23.314;2023-09-18T00:57:04;17.37;;;13.60;;
24277;SDS011;12394;42.692;23.314;2023-09-18T00:59:29;18.40;;;13.87;;
24277;SDS011;12394;42.692;23.314;2023-09-18T01:01:56;20.53;;;13.20;;
24277;SDS011;12394;42.692;23.314;2023-09-18T01:04:21;16.73;;;13.57;;
24277;SDS011;12394;42.692;23.314;2023-09-18T01:06:47;19.60;;;12.83;;
24277;SDS011;12394;42.692;23.314;2023-09-18T01:09:14;15.83;;;12.47;;
24277;SDS011;12394;42.692;23.314;2023-09-18T01:12:01;16.40;;;12.50;;
24277;SDS011;12394;42.692;23.314;2023-09-18T01:14:40;14.30;;;11.30;;
24277;SDS011;12394;42.692;23.314;2023-09-18T01:17:10;17.07;;;13.10;;
24277;SDS011;12394;42.692;23.314;2023-09-18T01:22:04;18.73;;;12.07;;
24277;SDS011;12394;42.692;23.314;2023-09-18T01:24:32;15.80;;;11.10;;
24277;SDS011;12394;42.692;23.314;2023-09-18T01:26:58;15.67;;;10.97;;
24277;SDS011;12394;42.692;23.314;2023-09-18T01:29:24;13.67;;;10.10;;
24277;SDS011;12394;42.692;23.314;2023-09-18T01:31:49;11.90;;;10.23;;
24277;SDS011;12394;42.692;23.314;2023-09-18T01:34:16;14.47;;;10.00;;
24277;SDS011;12394;42.692;23.314;2023-09-18T01:36:46;14.17;;;10.50;;
24277;SDS011;12394;42.692;23.314;2023-09-18T01:39:12;13.87;;;10.23;;
24277;SDS011;12394;42.692;23.314;2023-09-18T01:41:38;13.63;;;10.30;;
24277;SDS011;12394;42.692;23.314;2023-09-18T01:44:05;13.30;;;9.83;;
24277;SDS011;12394;42.692;23.314;2023-09-18T01:46:33;12.37;;;9.70;;
24277;SDS011;12394;42.692;23.314;2023-09-18T01:49:03;15.53;;;9.53;;
24277;SDS011;12394;42.692;23.314;2023-09-18T01:51:31;13.50;;;10.00;;
24277;SDS011;12394;42.692;23.314;2023-09-18T01:53:57;16.23;;;10.90;;
24277;SDS011;12394;42.692;23.314;2023-09-18T01:56:23;13.87;;;9.30;;
24277;SDS011;12394;42.692;23.314;2023-09-18T01:58:48;17.33;;;9.43;;
24277;SDS011;12394;42.692;23.314;2023-09-18T02:01:14;12.97;;;9.27;;
24277;SDS011;12394;42.692;23.314;2023-09-18T02:03:39;12.90;;;9.17;;
24277;SDS011;12394;42.692;23.314;2023-09-18T02:06:10;13.43;;;9.57;;
24277;SDS011;12394;42.692;23.314;2023-09-18T02:08:35;11.70;;;9.33;;
24277;SDS011;12394;42.692;23.314;2023-09-18T02:11:01;15.37;;;10.53;;
24277;SDS011;12394;42.692;23.314;2023-09-18T02:13:28;13.43;;;10.33;;
24277;SDS011;12394;42.692;23.314;2023-09-18T02:15:54;13.40;;;9.90;;
24277;SDS011;12394;42.692;23.314;2023-09-18T02:18:20;15.90;;;11.43;;
24277;SDS011;12394;42.692;23.314;2023-09-18T02:20:46;14.93;;;10.47;;
24277;SDS011;12394;42.692;23.314;2023-09-18T02:23:14;14.10;;;11.07;;
24277;SDS011;12394;42.692;23.314;2023-09-18T02:25:40;15.10;;;11.03;;
24277;SDS011;12394;42.692;23.314;2023-09-18T02:28:06;13.20;;;10.67;;
24277;SDS011;12394;42.692;23.314;2023-09-18T02:30:31;14.10;;;11.60;;
24277;SDS011;12394;42.692;23.314;2023-09-18T02:32:57;15.03;;;11.23;;
24277;SDS011;12394;42.692;23.314;2023-09-18T02:35:22;15.07;;;11.13;;
24277;SDS011;12394;42.692;23.314;2023-09-18T02:37:48;13.67;;;10.47;;
24277;SDS011;12394;42.692;23.314;2023-09-18T02:40:13;14.13;;;10.37;;
24277;SDS011;12394;42.692;23.314;2023-09-18T02:42:39;15.17;;;11.10;;
24277;SDS011;12394;42.692;23.314;2023-09-18T02:45:04;15.73;;;9.77;;
24277;SDS011;12394;42.692;23.314;2023-09-18T02:47:30;14.73;;;10.37;;
24277;SDS011;12394;42.692;23.314;2023-09-18T02:49:55;13.17;;;9.57;;
24277;SDS011;12394;42.692;23.314;2023-09-18T02:52:21;13.83;;;9.83;;
24277;SDS011;12394;42.692;23.314;2023-09-18T02:54:46;12.97;;;9.73;;
24277;SDS011;12394;42.692;23.314;2023-09-18T02:57:11;13.83;;;10.07;;
24277;SDS011;12394;42.692;23.314;2023-09-18T02:59:37;12.30;;;8.37;;
24277;SDS011;12394;42.692;23.314;2023-09-18T03:02:02;13.97;;;8.37;;
24277;SDS011;12394;42.692;23.314;2023-09-18T03:04:29;12.07;;;9.20;;
24277;SDS011;12394;42.692;23.314;2023-09-18T03:06:55;11.40;;;8.80;;
24277;SDS011;12394;42.692;23.314;2023-09-18T03:09:20;11.80;;;8.80;;
24277;SDS011;12394;42.692;23.314;2023-09-18T03:11:46;12.03;;;8.73;;
24277;SDS011;12394;42.692;23.314;2023-09-18T03:14:11;15.07;;;9.50;;
24277;SDS011;12394;42.692;23.314;2023-09-18T03:16:37;14.63;;;9.20;;
24277;SDS011;12394;42.692;23.314;2023-09-18T03:19:02;11.90;;;9.17;;
24277;SDS011;12394;42.692;23.314;2023-09-18T03:21:28;15.43;;;9.03;;
24277;SDS011;12394;42.692;23.314;2023-09-18T03:23:53;13.10;;;9.47;;
24277;SDS011;12394;42.692;23.314;2023-09-18T03:26:19;13.67;;;8.60;;
24277;SDS011;12394;42.692;23.314;2023-09-18T03:28:44;11.53;;;8.90;;
24277;SDS011;12394;42.692;23.314;2023-09-18T03:31:10;17.90;;;9.37;;
24277;SDS011;12394;42.692;23.314;2023-09-18T03:33:35;13.30;;;8.83;;
24277;SDS011;12394;42.692;23.314;2023-09-18T03:36:00;11.67;;;8.63;;
24277;SDS011;12394;42.692;23.314;2023-09-18T03:38:26;15.37;;;9.43;;
24277;SDS011;12394;42.692;23.314;2023-09-18T03:40:51;12.23;;;9.77;;
24277;SDS011;12394;42.692;23.314;2023-09-18T03:43:16;15.33;;;10.07;;
24277;SDS011;12394;42.692;23.314;2023-09-18T03:45:42;14.27;;;9.57;;
24277;SDS011;12394;42.692;23.314;2023-09-18T03:48:08;13.87;;;10.20;;
24277;SDS011;12394;42.692;23.314;2023-09-18T03:50:33;15.87;;;10.70;;
24277;SDS011;12394;42.692;23.314;2023-09-18T03:52:59;13.47;;;11.47;;
24277;SDS011;12394;42.692;23.314;2023-09-18T03:55:24;15.50;;;10.87;;
24277;SDS011;12394;42.692;23.314;2023-09-18T03:57:51;17.60;;;11.50;;
24277;SDS011;12394;42.692;23.314;2023-09-18T04:00:17;16.43;;;10.67;;
24277;SDS011;12394;42.692;23.314;2023-09-18T04:02:43;15.10;;;10.40;;
24277;SDS011;12394;42.692;23.314;2023-09-18T04:05:08;16.57;;;10.47;;
24277;SDS011;12394;42.692;23.314;2023-09-18T04:07:34;13.70;;;11.57;;
24277;SDS011;12394;42.692;23.314;2023-09-18T04:10:00;22.23;;;14.13;;
24277;SDS011;12394;42.692;23.314;2023-09-18T04:12:25;17.17;;;12.13;;
24277;SDS011;12394;42.692;23.314;2023-09-18T04:14:51;17.07;;;12.20;;
24277;SDS011;12394;42.692;23.314;2023-09-18T04:17:17;16.70;;;12.57;;
24277;SDS011;12394;42.692;23.314;2023-09-18T04:19:42;15.80;;;11.63;;
24277;SDS011;12394;42.692;23.314;2023-09-18T04:22:08;19.13;;;13.00;;
24277;SDS011;12394;42.692;23.314;2023-09-18T04:24:33;15.83;;;12.57;;
24277;SDS011;12394;42.692;23.314;2023-09-18T04:26:59;20.47;;;13.43;;
24277;SDS011;12394;42.692;23.314;2023-09-18T04:29:24;19.30;;;12.67;;
24277;SDS011;12394;42.692;23.314;2023-09-18T04:31:50;17.10;;;11.83;;
24277;SDS011;12394;42.692;23.314;2023-09-18T04:34:15;20.43;;;11.80;;
24277;SDS011;12394;42.692;23.314;2023-09-18T04:36:41;18.60;;;12.60;;
24277;SDS011;12394;42.692;23.314;2023-09-18T04:39:06;19.33;;;12.47;;
24277;SDS011;12394;42.692;23.314;2023-09-18T04:41:32;16.80;;;11.63;;
24277;SDS011;12394;42.692;23.314;2023-09-18T04:43:58;16.77;;;12.23;;
24277;SDS011;12394;42.692;23.314;2023-09-18T04:46:24;19.17;;;11.80;;
24277;SDS011;12394;42.692;23.314;2023-09-18T04:48:50;20.27;;;11.63;;
24277;SDS011;12394;42.692;23.314;2023-09-18T04:51:15;17.47;;;10.73;;
24277;SDS011;12394;42.692;23.314;2023-09-18T04:53:41;16.63;;;11.20;;
24277;SDS011;12394;42.692;23.314;2023-09-18T04:56:07;18.93;;;11.60;;
24277;SDS011;12394;42.692;23.314;2023-09-18T04:58:35;15.53;;;12.33;;
24277;SDS011;12394;42.692;23.314;2023-09-18T05:01:02;20.07;;;12.47;;
24277;SDS011;12394;42.692;23.314;2023-09-18T05:03:29;16.43;;;12.43;;
24277;SDS011;12394;42.692;23.314;2023-09-18T05:05:55;16.63;;;11.17;;
24277;SDS011;12394;42.692;23.314;2023-09-18T05:08:20;18.90;;;12.00;;
24277;SDS011;12394;42.692;23.314;2023-09-18T05:10:46;17.97;;;11.20;;
24277;SDS011;12394;42.692;23.314;2023-09-18T05:13:12;20.17;;;11.73;;
24277;SDS011;12394;42.692;23.314;2023-09-18T05:15:38;21.43;;;13.07;;
24277;SDS011;12394;42.692;23.314;2023-09-18T05:18:03;17.40;;;11.70;;
24277;SDS011;12394;42.692;23.314;2023-09-18T05:20:29;17.97;;;12.43;;
24277;SDS011;12394;42.692;23.314;2023-09-18T05:22:56;22.30;;;13.00;;
24277;SDS011;12394;42.692;23.314;2023-09-18T05:25:23;15.53;;;11.07;;
24277;SDS011;12394;42.692;23.314;2023-09-18T05:27:50;20.27;;;12.77;;
24277;SDS011;12394;42.692;23.314;2023-09-18T05:30:24;16.93;;;10.93;;
24277;SDS011;12394;42.692;23.314;2023-09-18T05:32:53;14.80;;;11.20;;
24277;SDS011;12394;42.692;23.314;2023-09-18T05:35:19;18.27;;;10.97;;
24277;SDS011;12394;42.692;23.314;2023-09-18T05:37:46;18.23;;;10.70;;
24277;SDS011;12394;42.692;23.314;2023-09-18T05:40:12;14.60;;;10.90;;
24277;SDS011;12394;42.692;23.314;2023-09-18T05:42:39;17.00;;;11.33;;
24277;SDS011;12394;42.692;23.314;2023-09-18T05:45:08;14.93;;;10.63;;
24277;SDS011;12394;42.692;23.314;2023-09-18T05:47:34;16.20;;;10.77;;
24277;SDS011;12394;42.692;23.314;2023-09-18T05:50:03;17.87;;;11.97;;
24277;SDS011;12394;42.692;23.314;2023-09-18T05:52:31;14.87;;;10.27;;
24277;SDS011;12394;42.692;23.314;2023-09-18T05:54:58;16.53;;;10.90;;
24277;SDS011;12394;42.692;23.314;2023-09-18T05:57:23;15.93;;;10.87;;
24277;SDS011;12394;42.692;23.314;2023-09-18T05:59:48;14.57;;;10.80;;
24277;SDS011;12394;42.692;23.314;2023-09-18T06:02:14;16.10;;;11.80;;
24277;SDS011;12394;42.692;23.314;2023-09-18T06:04:41;19.60;;;12.20;;
24277;SDS011;12394;42.692;23.314;2023-09-18T06:07:06;19.60;;;12.70;;
24277;SDS011;12394;42.692;23.314;2023-09-18T06:09:32;15.60;;;10.87;;
24277;SDS011;12394;42.692;23.314;2023-09-18T06:11:57;19.77;;;11.60;;
24277;SDS011;12394;42.692;23.314;2023-09-18T06:14:24;15.83;;;10.50;;
24277;SDS011;12394;42.692;23.314;2023-09-18T06:16:51;13.70;;;9.83;;
24277;SDS011;12394;42.692;23.314;2023-09-18T06:19:16;14.00;;;10.50;;
24277;SDS011;12394;42.692;23.314;2023-09-18T06:21:45;14.37;;;10.80;;
24277;SDS011;12394;42.692;23.314;2023-09-18T06:24:10;12.67;;;9.83;;
24277;SDS011;12394;42.692;23.314;2023-09-18T06:26:35;15.27;;;10.27;;
24277;SDS011;12394;42.692;23.314;2023-09-18T06:29:01;17.17;;;11.00;;
24277;SDS011;12394;42.692;23.314;2023-09-18T06:31:29;14.43;;;10.23;;
24277;SDS011;12394;42.692;23.314;2023-09-18T06:33:56;16.30;;;11.10;;
24277;SDS011;12394;42.692;23.314;2023-09-18T06:36:21;11.40;;;8.10;;
24277;SDS011;12394;42.692;23.314;2023-09-18T06:38:47;15.37;;;9.03;;
24277;SDS011;12394;42.692;23.314;2023-09-18T06:41:12;13.87;;;8.97;;
24277;SDS011;12394;42.692;23.314;2023-09-18T06:43:37;15.60;;;10.17;;
24277;SDS011;12394;42.692;23.314;2023-09-18T06:46:03;14.20;;;10.03;;
24277;SDS011;12394;42.692;23.314;2023-09-18T06:48:28;15.07;;;11.47;;
24277;SDS011;12394;42.692;23.314;2023-09-18T06:50:57;11.27;;;8.43;;
24277;SDS011;12394;42.692;23.314;2023-09-18T06:53:28;14.83;;;8.90;;
24277;SDS011;12394;42.692;23.314;2023-09-18T06:55:54;13.93;;;9.83;;
24277;SDS011;12394;42.692;23.314;2023-09-18T06:58:19;11.77;;;8.73;;
24277;SDS011;12394;42.692;23.314;2023-09-18T07:00:45;14.57;;;9.33;;
24277;SDS011;12394;42.692;23.314;2023-09-18T07:03:11;14.80;;;9.87;;
24277;SDS011;12394;42.692;23.314;2023-09-18T07:05:36;9.83;;;7.83;;
24277;SDS011;12394;42.692;23.314;2023-09-18T07:08:05;16.47;;;9.00;;
24277;SDS011;12394;42.692;23.314;2023-09-18T07:10:35;11.47;;;8.20;;
24277;SDS011;12394;42.692;23.314;2023-09-18T07:13:00;12.53;;;9.10;;
24277;SDS011;12394;42.692;23.314;2023-09-18T07:15:26;18.73;;;10.03;;
24277;SDS011;12394;42.692;23.314;2023-09-18T07:17:51;12.13;;;9.03;;
24277;SDS011;12394;42.692;23.314;2023-09-18T07:20:16;12.33;;;8.53;;
24277;SDS011;12394;42.692;23.314;2023-09-18T07:22:45;11.60;;;8.07;;
24277;SDS011;12394;42.692;23.314;2023-09-18T07:25:12;13.63;;;8.83;;
24277;SDS011;12394;42.692;23.314;2023-09-18T07:27:38;12.57;;;8.40;;
24277;SDS011;12394;42.692;23.314;2023-09-18T07:30:09;12.27;;;9.60;;
24277;SDS011;12394;42.692;23.314;2023-09-18T07:32:35;12.70;;;8.83;;
24277;SDS011;12394;42.692;23.314;2023-09-18T07:35:01;10.93;;;7.50;;
24277;SDS011;12394;42.692;23.314;2023-09-18T07:37:29;10.30;;;8.60;;
24277;SDS011;12394;42.692;23.314;2023-09-18T07:40:14;11.93;;;8.90;;
24277;SDS011;12394;42.692;23.314;2023-09-18T07:42:42;10.17;;;7.97;;
24277;SDS011;12394;42.692;23.314;2023-09-18T07:45:11;9.47;;;8.17;;
24277;SDS011;12394;42.692;23.314;2023-09-18T07:47:37;8.13;;;7.23;;
24277;SDS011;12394;42.692;23.314;2023-09-18T07:50:02;11.03;;;9.23;;
24277;SDS011;12394;42.692;23.314;2023-09-18T07:52:28;11.20;;;9.43;;
24277;SDS011;12394;42.692;23.314;2023-09-18T07:54:55;10.97;;;7.53;;
24277;SDS011;12394;42.692;23.314;2023-09-18T07:57:20;8.90;;;7.70;;
24277;SDS011;12394;42.692;23.314;2023-09-18T07:59:48;10.27;;;7.93;;
24277;SDS011;12394;42.692;23.314;2023-09-18T08:02:13;10.43;;;8.53;;
24277;SDS011;12394;42.692;23.314;2023-09-18T08:04:39;10.63;;;8.70;;
24277;SDS011;12394;42.692;23.314;2023-09-18T08:07:04;11.83;;;7.63;;
24277;SDS011;12394;42.692;23.314;2023-09-18T08:09:32;11.90;;;8.17;;
24277;SDS011;12394;42.692;23.314;2023-09-18T08:12:02;9.40;;;7.75;;
24277;SDS011;12394;42.692;23.314;2023-09-18T08:14:28;9.15;;;7.68;;
24277;SDS011;12394;42.692;23.314;2023-09-18T08:16:57;15.30;;;10.90;;
24277;SDS011;12394;42.692;23.314;2023-09-18T08:19:24;10.48;;;8.70;;
24277;SDS011;12394;42.692;23.314;2023-09-18T08:21:51;8.68;;;7.78;;
24277;SDS011;12394;42.692;23.314;2023-09-18T08:24:19;11.95;;;9.90;;
24277;SDS011;12394;42.692;23.314;2023-09-18T08:26:44;12.82;;;9.18;;
24277;SDS011;12394;42.692;23.314;2023-09-18T08:29:10;10.85;;;8.70;;
24277;SDS011;12394;42.692;23.314;2023-09-18T08:31:35;9.32;;;8.35;;
24277;SDS011;12394;42.692;23.314;2023-09-18T08:34:01;9.52;;;8.52;;
24277;SDS011;12394;42.692;23.314;2023-09-18T08:36:26;11.10;;;8.88;;
24277;SDS011;12394;42.692;23.314;2023-09-18T08:38:54;11.13;;;7.78;;
24277;SDS011;12394;42.692;23.314;2023-09-18T08:41:19;13.00;;;6.93;;
24277;SDS011;12394;42.692;23.314;2023-09-18T08:43:50;10.40;;;7.85;;
24277;SDS011;12394;42.692;23.314;2023-09-18T08:46:17;14.25;;;8.15;;
24277;SDS011;12394;42.692;23.314;2023-09-18T08:48:43;11.48;;;8.57;;
24277;SDS011;12394;42.692;23.314;2023-09-18T08:51:09;7.13;;;6.43;;
24277;SDS011;12394;42.692;23.314;2023-09-18T08:53:36;9.00;;;7.70;;
24277;SDS011;12394;42.692;23.314;2023-09-18T08:56:02;8.63;;;7.07;;
24277;SDS011;12394;42.692;23.314;2023-09-18T08:58:33;9.07;;;7.20;;
24277;SDS011;12394;42.692;23.314;2023-09-18T09:01:01;8.73;;;6.95;;
24277;SDS011;12394;42.692;23.314;2023-09-18T09:03:28;8.82;;;6.57;;
24277;SDS011;12394;42.692;23.314;2023-09-18T09:05:55;13.40;;;8.55;;
24277;SDS011;12394;42.692;23.314;2023-09-18T09:08:21;8.40;;;6.70;;
24277;SDS011;12394;42.692;23.314;2023-09-18T09:10:46;8.07;;;7.28;;
24277;SDS011;12394;42.692;23.314;2023-09-18T09:13:13;8.75;;;7.18;;
24277;SDS011;12394;42.692;23.314;2023-09-18T09:15:46;8.60;;;7.40;;
24277;SDS011;12394;42.692;23.314;2023-09-18T09:18:14;7.95;;;6.40;;
24277;SDS011;12394;42.692;23.314;2023-09-18T09:20:40;8.60;;;6.38;;
24277;SDS011;12394;42.692;23.314;2023-09-18T09:23:07;8.85;;;6.75;;
24277;SDS011;12394;42.692;23.314;2023-09-18T09:25:35;11.25;;;6.85;;
24277;SDS011;12394;42.692;23.314;2023-09-18T09:28:05;9.63;;;7.00;;
24277;SDS011;12394;42.692;23.314;2023-09-18T09:30:33;7.40;;;6.05;;
24277;SDS011;12394;42.692;23.314;2023-09-18T09:33:04;7.07;;;5.95;;
24277;SDS011;12394;42.692;23.314;2023-09-18T09:35:30;6.65;;;4.70;;
24277;SDS011;12394;42.692;23.314;2023-09-18T09:38:11;7.65;;;5.90;;
24277;SDS011;12394;42.692;23.314;2023-09-18T09:40:41;6.70;;;5.82;;
24277;SDS011;12394;42.692;23.314;2023-09-18T09:43:08;9.57;;;7.30;;
24277;SDS011;12394;42.692;23.314;2023-09-18T09:45:35;7.60;;;6.28;;
24277;SDS011;12394;42.692;23.314;2023-09-18T09:48:05;11.77;;;6.63;;
24277;SDS011;12394;42.692;23.314;2023-09-18T09:50:31;7.00;;;6.28;;
24277;SDS011;12394;42.692;23.314;2023-09-18T09:52:58;8.45;;;6.43;;
24277;SDS011;12394;42.692;23.314;2023-09-18T09:55:30;7.85;;;6.05;;
24277;SDS011;12394;42.692;23.314;2023-09-18T09:57:59;8.82;;;6.00;;
24277;SDS011;12394;42.692;23.314;2023-09-18T10:00:49;6.70;;;5.60;;
24277;SDS011;12394;42.692;23.314;2023-09-18T10:03:17;8.35;;;6.57;;
24277;SDS011;12394;42.692;23.314;2023-09-18T10:05:44;9.23;;;6.07;;
24277;SDS011;12394;42.692;23.314;2023-09-18T10:08:17;6.57;;;5.30;;
24277;SDS011;12394;42.692;23.314;2023-09-18T10:10:47;7.57;;;4.97;;
24277;SDS011;12394;42.692;23.314;2023-09-18T10:13:21;7.70;;;6.78;;
24277;SDS011;12394;42.692;23.314;2023-09-18T10:15:52;5.88;;;4.93;;
24277;SDS011;12394;42.692;23.314;2023-09-18T10:18:34;6.95;;;5.20;;
24277;SDS011;12394;42.692;23.314;2023-09-18T10:21:26;5.65;;;5.15;;
24277;SDS011;12394;42.692;23.314;2023-09-18T10:24:15;6.60;;;4.72;;
24277;SDS011;12394;42.692;23.314;2023-09-18T10:26:56;14.20;;;6.13;;
24277;SDS011;12394;42.692;23.314;2023-09-18T10:29:26;7.47;;;5.10;;
24277;SDS011;12394;42.692;23.314;2023-09-18T10:31:52;5.07;;;4.57;;
24277;SDS011;12394;42.692;23.314;2023-09-18T10:34:19;6.63;;;5.43;;
24277;SDS011;12394;42.692;23.314;2023-09-18T10:36:48;9.55;;;5.40;;
24277;SDS011;12394;42.692;23.314;2023-09-18T10:39:15;7.78;;;5.82;;
24277;SDS011;12394;42.692;23.314;2023-09-18T10:41:46;4.78;;;3.95;;
24277;SDS011;12394;42.692;23.314;2023-09-18T10:44:13;4.40;;;3.97;;
24277;SDS011;12394;42.692;23.314;2023-09-18T10:46:41;6.47;;;4.75;;
24277;SDS011;12394;42.692;23.314;2023-09-18T10:49:07;4.20;;;3.80;;
24277;SDS011;12394;42.692;23.314;2023-09-18T10:51:32;5.78;;;4.90;;
24277;SDS011;12394;42.692;23.314;2023-09-18T10:54:03;5.93;;;4.77;;
24277;SDS011;12394;42.692;23.314;2023-09-18T10:56:28;6.57;;;4.07;;
24277;SDS011;12394;42.692;23.314;2023-09-18T10:58:58;6.13;;;4.47;;
24277;SDS011;12394;42.692;23.314;2023-09-18T11:01:25;7.30;;;4.00;;
24277;SDS011;12394;42.692;23.314;2023-09-18T11:03:52;4.30;;;3.87;;
24277;SDS011;12394;42.692;23.314;2023-09-18T11:06:24;7.83;;;4.30;;
24277;SDS011;12394;42.692;23.314;2023-09-18T11:08:51;4.57;;;3.60;;
24277;SDS011;12394;42.692;23.314;2023-09-18T11:11:26;5.53;;;4.57;;
24277;SDS011;12394;42.692;23.314;2023-09-18T11:13:54;7.50;;;3.93;;
24277;SDS011;12394;42.692;23.314;2023-09-18T11:21:25;5.50;;;3.70;;
24277;SDS011;12394;42.692;23.314;2023-09-18T11:26:32;4.03;;;3.63;;
24277;SDS011;12394;42.692;23.314;2023-09-18T11:29:04;5.33;;;4.13;;
24277;SDS011;12394;42.692;23.314;2023-09-18T11:34:20;5.73;;;4.00;;
24277;SDS011;12394;42.692;23.314;2023-09-18T11:36:48;4.77;;;4.33;;
24277;SDS011;12394;42.692;23.314;2023-09-18T11:42:13;4.33;;;3.90;;
24277;SDS011;12394;42.692;23.314;2023-09-18T11:44:42;6.60;;;4.67;;
24277;SDS011;12394;42.692;23.314;2023-09-18T11:47:11;4.90;;;3.77;;
24277;SDS011;12394;42.692;23.314;2023-09-18T11:49:46;5.20;;;3.70;;
24277;SDS011;12394;42.692;23.314;2023-09-18T11:52:20;4.23;;;3.53;;
24277;SDS011;12394;42.692;23.314;2023-09-18T11:54:47;3.67;;;3.37;;
24277;SDS011;12394;42.692;23.314;2023-09-18T11:57:13;4.27;;;3.87;;
24277;SDS011;12394;42.692;23.314;2023-09-18T11:59:40;4.63;;;3.70;;
24277;SDS011;12394;42.692;23.314;2023-09-18T12:02:07;4.17;;;3.40;;
24277;SDS011;12394;42.692;23.314;2023-09-18T12:04:33;4.40;;;3.77;;
24277;SDS011;12394;42.692;23.314;2023-09-18T12:06:59;5.73;;;4.53;;
24277;SDS011;12394;42.692;23.314;2023-09-18T12:09:27;5.00;;;3.67;;
24277;SDS011;12394;42.692;23.314;2023-09-18T12:11:59;10.10;;;4.23;;
24277;SDS011;12394;42.692;23.314;2023-09-18T12:14:31;6.73;;;3.57;;
24277;SDS011;12394;42.692;23.314;2023-09-18T12:16:58;5.43;;;4.40;;
24277;SDS011;12394;42.692;23.314;2023-09-18T12:19:25;3.83;;;3.23;;
24277;SDS011;12394;42.692;23.314;2023-09-18T12:21:50;6.00;;;4.33;;
24277;SDS011;12394;42.692;23.314;2023-09-18T12:24:22;8.87;;;3.97;;
24277;SDS011;12394;42.692;23.314;2023-09-18T12:26:49;5.03;;;4.10;;
24277;SDS011;12394;42.692;23.314;2023-09-18T12:29:16;5.10;;;3.83;;
24277;SDS011;12394;42.692;23.314;2023-09-18T12:31:42;4.50;;;3.67;;
24277;SDS011;12394;42.692;23.314;2023-09-18T12:34:14;7.40;;;3.93;;
24277;SDS011;12394;42.692;23.314;2023-09-18T12:36:45;7.27;;;4.37;;
24277;SDS011;12394;42.692;23.314;2023-09-18T12:39:14;6.40;;;4.90;;
24277;SDS011;12394;42.692;23.314;2023-09-18T12:41:46;8.30;;;4.23;;
24277;SDS011;12394;42.692;23.314;2023-09-18T12:44:13;6.43;;;5.07;;
24277;SDS011;12394;42.692;23.314;2023-09-18T12:46:41;6.43;;;3.80;;
24277;SDS011;12394;42.692;23.314;2023-09-18T12:51:42;5.07;;;4.03;;
24277;SDS011;12394;42.692;23.314;2023-09-18T12:54:09;7.03;;;4.67;;
24277;SDS011;12394;42.692;23.314;2023-09-18T12:56:39;6.07;;;4.57;;
24277;SDS011;12394;42.692;23.314;2023-09-18T12:59:06;7.60;;;4.93;;
24277;SDS011;12394;42.692;23.314;2023-09-18T13:01:31;5.23;;;4.07;;
24277;SDS011;12394;42.692;23.314;2023-09-18T13:03:57;4.50;;;4.10;;
24277;SDS011;12394;42.692;23.314;2023-09-18T13:06:30;7.07;;;3.83;;
24277;SDS011;12394;42.692;23.314;2023-09-18T13:08:55;5.20;;;4.57;;
24277;SDS011;12394;42.692;23.314;2023-09-18T13:17:35;6.00;;;4.57;;
24277;SDS011;12394;42.692;23.314;2023-09-18T13:20:06;6.33;;;4.30;;
24277;SDS011;12394;42.692;23.314;2023-09-18T13:22:34;7.90;;;5.43;;
24277;SDS011;12394;42.692;23.314;2023-09-18T13:25:00;6.30;;;3.80;;
24277;SDS011;12394;42.692;23.314;2023-09-18T13:27:45;5.53;;;4.47;;
24277;SDS011;12394;42.692;23.314;2023-09-18T13:30:11;5.53;;;4.43;;
24277;SDS011;12394;42.692;23.314;2023-09-18T13:32:36;5.30;;;4.50;;
24277;SDS011;12394;42.692;23.314;2023-09-18T13:35:05;5.17;;;4.30;;
24277;SDS011;12394;42.692;23.314;2023-09-18T13:37:33;6.23;;;4.63;;
24277;SDS011;12394;42.692;23.314;2023-09-18T13:40:00;4.80;;;4.20;;
24277;SDS011;12394;42.692;23.314;2023-09-18T13:42:28;5.57;;;4.50;;
24277;SDS011;12394;42.692;23.314;2023-09-18T13:44:57;4.97;;;4.20;;
24277;SDS011;12394;42.692;23.314;2023-09-18T13:47:25;4.80;;;4.20;;
24277;SDS011;12394;42.692;23.314;2023-09-18T13:49:52;6.97;;;3.97;;
24277;SDS011;12394;42.692;23.314;2023-09-18T13:52:18;7.37;;;3.90;;
24277;SDS011;12394;42.692;23.314;2023-09-18T13:54:45;5.77;;;3.90;;
24277;SDS011;12394;42.692;23.314;2023-09-18T13:57:16;4.00;;;3.60;;
24277;SDS011;12394;42.692;23.314;2023-09-18T13:59:42;4.10;;;3.40;;
24277;SDS011;12394;42.692;23.314;2023-09-18T14:02:07;5.97;;;4.10;;
24277;SDS011;12394;42.692;23.314;2023-09-18T14:04:33;5.97;;;3.93;;
24277;SDS011;12394;42.692;23.314;2023-09-18T14:06:59;4.53;;;4.10;;
24277;SDS011;12394;42.692;23.314;2023-09-18T14:09:24;4.80;;;3.90;;
24277;SDS011;12394;42.692;23.314;2023-09-18T14:11:50;5.43;;;3.63;;
24277;SDS011;12394;42.692;23.314;2023-09-18T14:14:15;4.33;;;3.93;;
24277;SDS011;12394;42.692;23.314;2023-09-18T14:16:41;7.17;;;4.03;;
24277;SDS011;12394;42.692;23.314;2023-09-18T14:19:06;5.10;;;3.97;;
24277;SDS011;12394;42.692;23.314;2023-09-18T14:21:36;6.13;;;3.90;;
24277;SDS011;12394;42.692;23.314;2023-09-18T14:24:01;6.97;;;3.73;;
24277;SDS011;12394;42.692;23.314;2023-09-18T14:26:27;5.43;;;4.27;;
24277;SDS011;12394;42.692;23.314;2023-09-18T14:28:52;5.73;;;4.43;;
24277;SDS011;12394;42.692;23.314;2023-09-18T14:31:19;5.20;;;3.73;;
24277;SDS011;12394;42.692;23.314;2023-09-18T14:33:44;4.40;;;4.00;;
24277;SDS011;12394;42.692;23.314;2023-09-18T14:36:10;5.10;;;4.20;;
24277;SDS011;12394;42.692;23.314;2023-09-18T14:38:35;5.10;;;4.20;;
24277;SDS011;12394;42.692;23.314;2023-09-18T14:41:01;6.33;;;4.00;;
24277;SDS011;12394;42.692;23.314;2023-09-18T14:43:28;5.80;;;4.30;;
24277;SDS011;12394;42.692;23.314;2023-09-18T14:45:53;3.93;;;3.50;;